Heusden, Belgium
Current Conditions -  °F | °C
As of 4:25 AM on Sunday 21 Dec 2014 (Local Time) from EBDT Reporting Station
Broken Clouds Broken Clouds  
Wind Chill: 34°   Ceiling: 18000
Heat Index: 39°   Visibility: 6mi
Dew Point: 37°   Wind: 7mph
Humidity: 93%   Direction: 230°SW
Pressure: 30.42"   Gusts: NA
Location:  51.04°N, 5.28°E
Report Text: EBDT 210325Z AUTO 23006KT 9999 BKN180/// 04/03 Q1030 BLU
Loading
Personal Weather Stations






























Interactive Weather Map New forecast layout! Learn more

10-Day Weather Forecast

Advertisements
Track Severe Weather on mobile